sensor_id;sensor_type;location;lat;lon;timestamp;pressure;altitude;pressure_sealevel;temperature;humidity
42001;BME280;27689;48.390;10.856;2022-11-04T00:00:35;95187.44;;;10.01;100.00
42001;BME280;27689;48.390;10.856;2022-11-04T00:03:18;95185.47;;;9.95;100.00
42001;BME280;27689;48.390;10.856;2022-11-04T00:06:02;95184.31;;;9.98;100.00
42001;BME280;27689;48.390;10.856;2022-11-04T00:08:53;95182.84;;;10.03;100.00
42001;BME280;27689;48.390;10.856;2022-11-04T00:11:37;95195.09;;;10.11;100.00
42001;BME280;27689;48.390;10.856;2022-11-04T00:14:41;95196.22;;;10.16;100.00
42001;BME280;27689;48.390;10.856;2022-11-04T00:17:24;95198.56;;;10.19;100.00
42001;BME280;27689;48.390;10.856;2022-11-04T00:20:09;95211.94;;;10.24;100.00
42001;BME280;27689;48.390;10.856;2022-11-04T00:23:12;95225.19;;;10.31;100.00
42001;BME280;27689;48.390;10.856;2022-11-04T00:26:15;95226.50;;;10.35;100.00
42001;BME280;27689;48.390;10.856;2022-11-04T00:29:18;95235.50;;;10.33;100.00
42001;BME280;27689;48.390;10.856;2022-11-04T00:32:01;95226.34;;;10.29;100.00
42001;BME280;27689;48.390;10.856;2022-11-04T00:35:04;95243.03;;;10.36;100.00
42001;BME280;27689;48.390;10.856;2022-11-04T00:37:49;95238.44;;;10.38;100.00
42001;BME280;27689;48.390;10.856;2022-11-04T00:40:33;95248.56;;;10.41;100.00
42001;BME280;27689;48.390;10.856;2022-11-04T00:43:16;95257.56;;;10.46;100.00
42001;BME280;27689;48.390;10.856;2022-11-04T00:46:00;95252.81;;;10.50;100.00
42001;BME280;27689;48.390;10.856;2022-11-04T00:48:44;95251.84;;;10.51;100.00
42001;BME280;27689;48.390;10.856;2022-11-04T00:51:28;95263.13;;;10.43;100.00
42001;BME280;27689;48.390;10.856;2022-11-04T00:54:12;95261.19;;;10.37;100.00
42001;BME280;27689;48.390;10.856;2022-11-04T00:56:56;95267.25;;;10.38;100.00
42001;BME280;27689;48.390;10.856;2022-11-04T00:59:40;95264.94;;;10.35;100.00
42001;BME280;27689;48.390;10.856;2022-11-04T01:02:24;95269.50;;;10.41;100.00
42001;BME280;27689;48.390;10.856;2022-11-04T01:05:08;95268.53;;;10.42;100.00
42001;BME280;27689;48.390;10.856;2022-11-04T01:07:52;95267.53;;;10.43;100.00
42001;BME280;27689;48.390;10.856;2022-11-04T01:10:36;95272.94;;;10.41;100.00
42001;BME280;27689;48.390;10.856;2022-11-04T01:13:26;95265.56;;;10.45;100.00
42001;BME280;27689;48.390;10.856;2022-11-04T01:16:11;95254.44;;;10.43;100.00
42001;BME280;27689;48.390;10.856;2022-11-04T01:18:55;95261.00;;;10.47;100.00
42001;BME280;27689;48.390;10.856;2022-11-04T01:21:40;95258.38;;;10.47;100.00
42001;BME280;27689;48.390;10.856;2022-11-04T01:24:24;95256.56;;;10.47;100.00
42001;BME280;27689;48.390;10.856;2022-11-04T01:27:08;95258.69;;;10.44;100.00
42001;BME280;27689;48.390;10.856;2022-11-04T01:29:52;95272.63;;;10.44;100.00
42001;BME280;27689;48.390;10.856;2022-11-04T01:32:36;95267.53;;;10.43;100.00
42001;BME280;27689;48.390;10.856;2022-11-04T01:35:20;95264.91;;;10.51;100.00
42001;BME280;27689;48.390;10.856;2022-11-04T01:38:04;95269.34;;;10.42;100.00
42001;BME280;27689;48.390;10.856;2022-11-04T01:40:48;95269.19;;;10.44;99.71
42001;BME280;27689;48.390;10.856;2022-11-04T01:46:41;95263.44;;;10.40;98.99
42001;BME280;27689;48.390;10.856;2022-11-04T01:49:34;95264.63;;;10.38;99.26
42001;BME280;27689;48.390;10.856;2022-11-04T01:52:24;95269.03;;;10.37;100.00
42001;BME280;27689;48.390;10.856;2022-11-04T01:55:11;95271.78;;;10.52;98.45
42001;BME280;27689;48.390;10.856;2022-11-04T01:57:57;95271.78;;;10.44;97.03
42001;BME280;27689;48.390;10.856;2022-11-04T02:00:42;95261.81;;;10.39;97.12
42001;BME280;27689;48.390;10.856;2022-11-04T02:06:13;95263.13;;;10.43;95.36
42001;BME280;27689;48.390;10.856;2022-11-04T02:08:58;95269.81;;;10.54;93.40
42001;BME280;27689;48.390;10.856;2022-11-04T02:11:42;95270.16;;;10.51;94.36
42001;BME280;27689;48.390;10.856;2022-11-04T02:14:48;95266.25;;;10.39;94.46
42001;BME280;27689;48.390;10.856;2022-11-04T02:17:37;95258.38;;;10.47;93.75
42001;BME280;27689;48.390;10.856;2022-11-04T02:23:55;95261.47;;;10.42;94.44
42001;BME280;27689;48.390;10.856;2022-11-04T02:26:25;95262.13;;;10.44;94.61
42001;BME280;27689;48.390;10.856;2022-11-04T02:35:16;95265.59;;;10.29;96.04
42001;BME280;27689;48.390;10.856;2022-11-04T02:46:35;95253.34;;;10.21;96.12
42001;BME280;27689;48.390;10.856;2022-11-04T02:49:36;95254.84;;;10.23;96.46
42001;BME280;27689;48.390;10.856;2022-11-04T02:52:25;95244.16;;;10.17;96.87
42001;BME280;27689;48.390;10.856;2022-11-04T02:55:24;95247.25;;;10.12;96.93
42001;BME280;27689;48.390;10.856;2022-11-04T02:58:15;95248.91;;;10.13;96.98
42001;BME280;27689;48.390;10.856;2022-11-04T03:01:01;95238.44;;;10.13;96.83
42001;BME280;27689;48.390;10.856;2022-11-04T03:03:48;95236.47;;;10.15;96.71
42001;BME280;27689;48.390;10.856;2022-11-04T03:06:35;95239.56;;;10.11;96.38
42001;BME280;27689;48.390;10.856;2022-11-04T03:09:19;95243.81;;;10.12;95.97
42001;BME280;27689;48.390;10.856;2022-11-04T03:12:06;95244.66;;;10.12;96.52
42001;BME280;27689;48.390;10.856;2022-11-04T03:14:53;95242.69;;;10.14;96.65
42001;BME280;27689;48.390;10.856;2022-11-04T03:17:40;95243.53;;;10.07;96.77
42001;BME280;27689;48.390;10.856;2022-11-04T03:20:27;95244.66;;;10.04;96.28
42001;BME280;27689;48.390;10.856;2022-11-04T03:23:12;95248.25;;;10.03;95.30
42001;BME280;27689;48.390;10.856;2022-11-04T03:26:14;95244.19;;;10.09;94.89
42001;BME280;27689;48.390;10.856;2022-11-04T03:35:00;95235.50;;;10.00;95.12
42001;BME280;27689;48.390;10.856;2022-11-04T03:37:44;95234.22;;;9.88;95.81
42001;BME280;27689;48.390;10.856;2022-11-04T03:40:29;95244.84;;;9.86;95.83
42001;BME280;27689;48.390;10.856;2022-11-04T03:43:15;95243.84;;;9.79;95.57
42001;BME280;27689;48.390;10.856;2022-11-04T03:46:01;95240.75;;;9.84;95.41
42001;BME280;27689;48.390;10.856;2022-11-04T03:48:44;95234.84;;;9.82;95.10
42001;BME280;27689;48.390;10.856;2022-11-04T03:51:29;95235.66;;;9.82;95.27
42001;BME280;27689;48.390;10.856;2022-11-04T03:54:13;95244.66;;;9.80;95.30
42001;BME280;27689;48.390;10.856;2022-11-04T03:57:08;95262.16;;;9.79;95.07
42001;BME280;27689;48.390;10.856;2022-11-04T04:00:06;95257.09;;;9.78;94.93
42001;BME280;27689;48.390;10.856;2022-11-04T04:02:58;95246.63;;;9.78;94.69
42001;BME280;27689;48.390;10.856;2022-11-04T04:08:39;95229.31;;;9.77;95.12
42001;BME280;27689;48.390;10.856;2022-11-04T04:16:53;95223.09;;;9.78;94.39
42001;BME280;27689;48.390;10.856;2022-11-04T04:19:39;95223.09;;;9.78;94.48
42001;BME280;27689;48.390;10.856;2022-11-04T04:22:29;95223.91;;;9.70;95.27
42001;BME280;27689;48.390;10.856;2022-11-04T04:25:15;95233.53;;;9.70;95.13
42001;BME280;27689;48.390;10.856;2022-11-04T04:28:18;95236.16;;;9.62;96.20
42001;BME280;27689;48.390;10.856;2022-11-04T04:31:02;95242.84;;;9.56;95.84
42001;BME280;27689;48.390;10.856;2022-11-04T04:33:46;95246.63;;;9.62;96.36
42001;BME280;27689;48.390;10.856;2022-11-04T04:36:31;95248.25;;;9.71;96.30
42001;BME280;27689;48.390;10.856;2022-11-04T04:39:17;95245.31;;;9.66;96.39
42001;BME280;27689;48.390;10.856;2022-11-04T04:42:22;95231.91;;;9.69;96.04
42001;BME280;27689;48.390;10.856;2022-11-04T04:45:31;95221.78;;;9.74;95.48
42001;BME280;27689;48.390;10.856;2022-11-04T04:48:17;95205.75;;;9.69;95.85
42001;BME280;27689;48.390;10.856;2022-11-04T04:51:01;95208.06;;;9.64;96.66
42001;BME280;27689;48.390;10.856;2022-11-04T04:53:45;95220.13;;;9.65;97.42
42001;BME280;27689;48.390;10.856;2022-11-04T04:56:29;95254.59;;;9.52;99.31
42001;BME280;27689;48.390;10.856;2022-11-04T04:59:13;95280.91;;;9.50;99.64
42001;BME280;27689;48.390;10.856;2022-11-04T05:01:57;95269.00;;;9.48;100.00
42001;BME280;27689;48.390;10.856;2022-11-04T05:04:41;95254.28;;;9.47;100.00
42001;BME280;27689;48.390;10.856;2022-11-04T05:07:25;95245.78;;;9.45;100.00
42001;BME280;27689;48.390;10.856;2022-11-04T05:10:10;95256.91;;;9.47;100.00
42001;BME280;27689;48.390;10.856;2022-11-04T05:12:55;95265.72;;;9.46;100.00
42001;BME280;27689;48.390;10.856;2022-11-04T05:16:05;95267.31;;;9.39;100.00
42001;BME280;27689;48.390;10.856;2022-11-04T05:18:52;95259.00;;;9.51;100.00
42001;BME280;27689;48.390;10.856;2022-11-04T05:21:36;95261.00;;;9.49;100.00
42001;BME280;27689;48.390;10.856;2022-11-04T05:24:20;95264.88;;;9.37;100.00
42001;BME280;27689;48.390;10.856;2022-11-04T05:27:04;95271.06;;;9.36;100.00
42001;BME280;27689;48.390;10.856;2022-11-04T05:29:48;95274.34;;;9.30;100.00
42001;BME280;27689;48.390;10.856;2022-11-04T05:32:32;95279.22;;;9.25;100.00
42001;BME280;27689;48.390;10.856;2022-11-04T05:35:16;95288.03;;;9.16;100.00
42001;BME280;27689;48.390;10.856;2022-11-04T05:38:00;95297.94;;;9.04;100.00
42001;BME280;27689;48.390;10.856;2022-11-04T05:40:44;95317.53;;;9.00;100.00
42001;BME280;27689;48.390;10.856;2022-11-04T05:43:28;95326.84;;;9.03;100.00
42001;BME280;27689;48.390;10.856;2022-11-04T05:46:12;95326.34;;;9.07;100.00
42001;BME280;27689;48.390;10.856;2022-11-04T05:48:56;95334.53;;;9.04;100.00
42001;BME280;27689;48.390;10.856;2022-11-04T05:51:40;95324.69;;;8.98;100.00
42001;BME280;27689;48.390;10.856;2022-11-04T05:54:24;95316.38;;;9.03;100.00
42001;BME280;27689;48.390;10.856;2022-11-04T05:57:08;95320.47;;;9.05;100.00
42001;BME280;27689;48.390;10.856;2022-11-04T05:59:52;95296.78;;;8.99;100.00
42001;BME280;27689;48.390;10.856;2022-11-04T06:02:36;95283.19;;;8.95;100.00
42001;BME280;27689;48.390;10.856;2022-11-04T06:05:20;95284.66;;;8.90;100.00
42001;BME280;27689;48.390;10.856;2022-11-04T06:08:04;95267.69;;;8.94;100.00
42001;BME280;27689;48.390;10.856;2022-11-04T06:10:48;95271.59;;;8.90;100.00
42001;BME280;27689;48.390;10.856;2022-11-04T06:13:32;95283.63;;;8.82;100.00
42001;BME280;27689;48.390;10.856;2022-11-04T06:16:16;95288.56;;;8.86;100.00
42001;BME280;27689;48.390;10.856;2022-11-04T06:18:59;95297.66;;;8.81;100.00
42001;BME280;27689;48.390;10.856;2022-11-04T06:21:43;95295.34;;;8.78;100.00
42001;BME280;27689;48.390;10.856;2022-11-04T06:24:27;95291.31;;;8.84;100.00
42001;BME280;27689;48.390;10.856;2022-11-04T06:27:11;95282.16;;;8.80;100.00
42001;BME280;27689;48.390;10.856;2022-11-04T06:29:55;95285.28;;;8.83;100.00
42001;BME280;27689;48.390;10.856;2022-11-04T06:32:39;95288.19;;;8.80;100.00
42001;BME280;27689;48.390;10.856;2022-11-04T06:35:23;95265.97;;;8.76;100.00
42001;BME280;27689;48.390;10.856;2022-11-04T06:38:07;95264.38;;;8.75;100.00
42001;BME280;27689;48.390;10.856;2022-11-04T06:40:51;95275.25;;;8.71;100.00
42001;BME280;27689;48.390;10.856;2022-11-04T06:43:34;95290.25;;;8.69;100.00
42001;BME280;27689;48.390;10.856;2022-11-04T06:49:16;95261.56;;;8.77;100.00
42001;BME280;27689;48.390;10.856;2022-11-04T06:52:03;95269.25;;;8.78;100.00
42001;BME280;27689;48.390;10.856;2022-11-04T06:54:47;95268.44;;;8.78;100.00
42001;BME280;27689;48.390;10.856;2022-11-04T06:57:31;95271.84;;;8.78;100.00
42001;BME280;27689;48.390;10.856;2022-11-04T07:00:15;95270.22;;;8.77;100.00
42001;BME280;27689;48.390;10.856;2022-11-04T07:02:59;95265.66;;;8.79;100.00
42001;BME280;27689;48.390;10.856;2022-11-04T07:05:42;95274.81;;;8.75;100.00
42001;BME280;27689;48.390;10.856;2022-11-04T07:08:26;95284.75;;;8.72;100.00
42001;BME280;27689;48.390;10.856;2022-11-04T07:11:11;95271.38;;;8.75;100.00
42001;BME280;27689;48.390;10.856;2022-11-04T07:13:54;95270.22;;;8.77;100.00
42001;BME280;27689;48.390;10.856;2022-11-04T07:16:38;95260.94;;;8.75;100.00
42001;BME280;27689;48.390;10.856;2022-11-04T07:19:22;95253.72;;;8.77;100.00
42001;BME280;27689;48.390;10.856;2022-11-04T07:22:06;95264.81;;;8.71;100.00
42001;BME280;27689;48.390;10.856;2022-11-04T07:24:51;95281.97;;;8.73;100.00
42001;BME280;27689;48.390;10.856;2022-11-04T07:27:35;95278.84;;;8.70;100.00
42001;BME280;27689;48.390;10.856;2022-11-04T07:30:19;95296.91;;;8.63;100.00
42001;BME280;27689;48.390;10.856;2022-11-04T07:33:03;95293.03;;;8.67;100.00
42001;BME280;27689;48.390;10.856;2022-11-04T07:35:47;95296.97;;;8.71;100.00
42001;BME280;27689;48.390;10.856;2022-11-04T07:38:31;95294.22;;;8.73;100.00
42001;BME280;27689;48.390;10.856;2022-11-04T07:41:15;95300.56;;;8.70;100.00
42001;BME280;27689;48.390;10.856;2022-11-04T07:44:00;95314.88;;;8.66;100.00
42001;BME280;27689;48.390;10.856;2022-11-04T07:46:47;95328.22;;;8.55;100.00
42001;BME280;27689;48.390;10.856;2022-11-04T07:49:31;95335.66;;;8.50;100.00
42001;BME280;27689;48.390;10.856;2022-11-04T07:52:16;95342.16;;;8.46;100.00
42001;BME280;27689;48.390;10.856;2022-11-04T07:55:00;95351.44;;;8.40;100.00
42001;BME280;27689;48.390;10.856;2022-11-04T07:57:44;95336.44;;;8.42;100.00
42001;BME280;27689;48.390;10.856;2022-11-04T08:00:29;95336.16;;;8.45;100.00
42001;BME280;27689;48.390;10.856;2022-11-04T08:03:13;95325.19;;;8.42;100.00
42001;BME280;27689;48.390;10.856;2022-11-04T08:05:58;95323.69;;;8.39;100.00
42001;BME280;27689;48.390;10.856;2022-11-04T08:08:43;95328.91;;;8.39;100.00
42001;BME280;27689;48.390;10.856;2022-11-04T08:11:27;95327.56;;;8.35;100.00
42001;BME280;27689;48.390;10.856;2022-11-04T08:14:11;95334.00;;;8.41;100.00
42001;BME280;27689;48.390;10.856;2022-11-04T08:16:55;95337.88;;;8.37;100.00
42001;BME280;27689;48.390;10.856;2022-11-04T08:19:39;95353.75;;;8.43;100.00
42001;BME280;27689;48.390;10.856;2022-11-04T08:22:24;95349.34;;;8.44;100.00
42001;BME280;27689;48.390;10.856;2022-11-04T08:25:08;95360.75;;;8.43;100.00
42001;BME280;27689;48.390;10.856;2022-11-04T08:27:56;95362.53;;;8.42;100.00
42001;BME280;27689;48.390;10.856;2022-11-04T08:30:40;95365.00;;;8.44;100.00
42001;BME280;27689;48.390;10.856;2022-11-04T08:33:24;95350.00;;;8.46;100.00
42001;BME280;27689;48.390;10.856;2022-11-04T08:36:12;95352.28;;;8.49;100.00
42001;BME280;27689;48.390;10.856;2022-11-04T08:38:56;95338.28;;;8.50;100.00
42001;BME280;27689;48.390;10.856;2022-11-04T08:41:41;95326.56;;;8.54;100.00
42001;BME280;27689;48.390;10.856;2022-11-04T08:44:25;95316.31;;;8.61;100.00
42001;BME280;27689;48.390;10.856;2022-11-04T08:47:09;95313.69;;;8.61;100.00
42001;BME280;27689;48.390;10.856;2022-11-04T08:49:53;95316.50;;;8.59;100.00
42001;BME280;27689;48.390;10.856;2022-11-04T08:52:37;95322.19;;;8.63;100.00
42001;BME280;27689;48.390;10.856;2022-11-04T08:55:21;95313.25;;;8.65;100.00
42001;BME280;27689;48.390;10.856;2022-11-04T08:58:05;95297.13;;;8.70;100.00
42001;BME280;27689;48.390;10.856;2022-11-04T09:00:49;95290.13;;;8.70;100.00
42001;BME280;27689;48.390;10.856;2022-11-04T09:03:33;95288.03;;;8.74;100.00
42001;BME280;27689;48.390;10.856;2022-11-04T09:06:27;95291.09;;;8.77;100.00
42001;BME280;27689;48.390;10.856;2022-11-04T09:09:12;95282.63;;;8.75;100.00
42001;BME280;27689;48.390;10.856;2022-11-04T09:11:56;95286.72;;;8.78;100.00
42001;BME280;27689;48.390;10.856;2022-11-04T09:14:40;95289.13;;;8.71;100.00
42001;BME280;27689;48.390;10.856;2022-11-04T09:17:24;95289.00;;;8.73;100.00
42001;BME280;27689;48.390;10.856;2022-11-04T09:20:08;95278.69;;;8.71;100.00
42001;BME280;27689;48.390;10.856;2022-11-04T09:22:51;95282.28;;;8.70;100.00
42001;BME280;27689;48.390;10.856;2022-11-04T09:25:36;95283.28;;;8.77;100.00
42001;BME280;27689;48.390;10.856;2022-11-04T09:28:20;95277.09;;;8.78;100.00
42001;BME280;27689;48.390;10.856;2022-11-04T09:31:05;95274.16;;;8.81;100.00
42001;BME280;27689;48.390;10.856;2022-11-04T09:33:49;95266.03;;;8.84;100.00
42001;BME280;27689;48.390;10.856;2022-11-04T09:36:33;95275.19;;;8.89;100.00
42001;BME280;27689;48.390;10.856;2022-11-04T09:39:17;95275.03;;;8.90;100.00
42001;BME280;27689;48.390;10.856;2022-11-04T09:47:39;95288.13;;;9.06;100.00
42001;BME280;27689;48.390;10.856;2022-11-04T09:50:26;95294.66;;;9.02;100.00
42001;BME280;27689;48.390;10.856;2022-11-04T09:53:56;95299.25;;;9.08;100.00
42001;BME280;27689;48.390;10.856;2022-11-04T09:56:20;95301.03;;;9.08;100.00
42001;BME280;27689;48.390;10.856;2022-11-04T09:59:04;95302.53;;;9.10;100.00
42001;BME280;27689;48.390;10.856;2022-11-04T10:07:39;95312.53;;;9.23;100.00
42001;BME280;27689;48.390;10.856;2022-11-04T10:22:07;95286.94;;;9.35;100.00
42001;BME280;27689;48.390;10.856;2022-11-04T10:27:40;95277.13;;;9.37;100.00
42001;BME280;27689;48.390;10.856;2022-11-04T10:30:25;95267.53;;;9.45;100.00
42001;BME280;27689;48.390;10.856;2022-11-04T10:36:05;95251.97;;;9.36;100.00
42001;BME280;27689;48.390;10.856;2022-11-04T10:38:53;95246.41;;;9.39;100.00
42001;BME280;27689;48.390;10.856;2022-11-04T10:41:40;95244.00;;;9.45;100.00
42001;BME280;27689;48.390;10.856;2022-11-04T10:44:25;95246.75;;;9.44;100.00
42001;BME280;27689;48.390;10.856;2022-11-04T10:53:12;95235.31;;;9.53;100.00
42001;BME280;27689;48.390;10.856;2022-11-04T10:58:47;95234.69;;;9.59;100.00
42001;BME280;27689;48.390;10.856;2022-11-04T11:01:32;95215.88;;;9.55;100.00
42001;BME280;27689;48.390;10.856;2022-11-04T11:04:30;95218.69;;;9.62;100.00
42001;BME280;27689;48.390;10.856;2022-11-04T11:07:16;95224.06;;;9.69;100.00
42001;BME280;27689;48.390;10.856;2022-11-04T11:10:05;95228.66;;;9.75;100.00
42001;BME280;27689;48.390;10.856;2022-11-04T11:13:05;95226.19;;;9.81;100.00
42001;BME280;27689;48.390;10.856;2022-11-04T11:19:06;95223.41;;;9.83;100.00
42001;BME280;27689;48.390;10.856;2022-11-04T11:21:52;95223.59;;;9.89;100.00
42001;BME280;27689;48.390;10.856;2022-11-04T11:24:37;95227.66;;;9.92;100.00
42001;BME280;27689;48.390;10.856;2022-11-04T11:27:29;95224.91;;;9.94;100.00
42001;BME280;27689;48.390;10.856;2022-11-04T11:30:20;95238.13;;;9.92;100.00
42001;BME280;27689;48.390;10.856;2022-11-04T11:33:05;95239.13;;;9.91;99.26
42001;BME280;27689;48.390;10.856;2022-11-04T11:41:49;95239.28;;;9.89;100.00
42001;BME280;27689;48.390;10.856;2022-11-04T11:44:47;95238.78;;;9.86;99.44
42001;BME280;27689;48.390;10.856;2022-11-04T11:47:35;95235.69;;;9.90;100.00
42001;BME280;27689;48.390;10.856;2022-11-04T11:50:26;95248.91;;;9.97;99.51
42001;BME280;27689;48.390;10.856;2022-11-04T11:53:18;95262.00;;;9.97;99.49
42001;BME280;27689;48.390;10.856;2022-11-04T11:56:17;95257.56;;;9.98;98.99
42001;BME280;27689;48.390;10.856;2022-11-04T11:59:07;95262.97;;;9.96;97.00
42001;BME280;27689;48.390;10.856;2022-11-04T12:04:53;95258.22;;;10.00;99.50
42001;BME280;27689;48.390;10.856;2022-11-04T12:08:17;95261.50;;;10.02;98.97
42001;BME280;27689;48.390;10.856;2022-11-04T12:10:56;95262.47;;;10.01;98.26
42001;BME280;27689;48.390;10.856;2022-11-04T12:13:47;95256.59;;;9.99;98.03
42001;BME280;27689;48.390;10.856;2022-11-04T12:16:36;95258.06;;;10.01;98.33
42001;BME280;27689;48.390;10.856;2022-11-04T12:39:58;95252.03;;;10.01;97.40
42001;BME280;27689;48.390;10.856;2022-11-04T12:42:51;95247.13;;;10.06;96.19
42001;BME280;27689;48.390;10.856;2022-11-04T13:00:24;95251.84;;;10.10;94.99
42001;BME280;27689;48.390;10.856;2022-11-04T13:03:15;95248.44;;;10.02;93.82
42001;BME280;27689;48.390;10.856;2022-11-04T13:06:03;95253.97;;;9.99;95.02
42001;BME280;27689;48.390;10.856;2022-11-04T13:11:53;95257.91;;;10.11;93.26
42001;BME280;27689;48.390;10.856;2022-11-04T13:17:25;95259.72;;;10.02;95.44
42001;BME280;27689;48.390;10.856;2022-11-04T13:22:57;95261.16;;;10.13;96.15
42001;BME280;27689;48.390;10.856;2022-11-04T13:25:43;95255.59;;;10.16;95.37
42001;BME280;27689;48.390;10.856;2022-11-04T13:28:28;95260.56;;;10.19;95.80
42001;BME280;27689;48.390;10.856;2022-11-04T13:31:18;95265.91;;;10.09;95.31
42001;BME280;27689;48.390;10.856;2022-11-04T13:34:10;95276.22;;;10.03;95.80
42001;BME280;27689;48.390;10.856;2022-11-04T13:37:08;95277.88;;;10.04;95.83
42001;BME280;27689;48.390;10.856;2022-11-04T13:40:00;95285.72;;;10.04;93.98
42001;BME280;27689;48.390;10.856;2022-11-04T13:45:33;95286.38;;;10.06;94.99
42001;BME280;27689;48.390;10.856;2022-11-04T13:48:28;95288.81;;;10.07;94.93
42001;BME280;27689;48.390;10.856;2022-11-04T13:51:14;95287.50;;;10.03;95.04
42001;BME280;27689;48.390;10.856;2022-11-04T13:53:58;95288.81;;;10.07;94.68
42001;BME280;27689;48.390;10.856;2022-11-04T13:56:42;95284.56;;;10.14;94.20
42001;BME280;27689;48.390;10.856;2022-11-04T13:59:28;95279.31;;;10.14;95.03
42001;BME280;27689;48.390;10.856;2022-11-04T14:04:56;95278.00;;;10.10;94.83
42001;BME280;27689;48.390;10.856;2022-11-04T14:22:12;95281.44;;;9.95;95.98
42001;BME280;27689;48.390;10.856;2022-11-04T14:24:57;95287.34;;;9.97;96.63
42001;BME280;27689;48.390;10.856;2022-11-04T14:27:42;95287.50;;;9.87;95.18
42001;BME280;27689;48.390;10.856;2022-11-04T14:30:45;95288.50;;;9.78;95.64
42001;BME280;27689;48.390;10.856;2022-11-04T14:33:32;95286.84;;;9.77;96.39
42001;BME280;27689;48.390;10.856;2022-11-04T14:41:55;95297.81;;;9.88;96.62
42001;BME280;27689;48.390;10.856;2022-11-04T14:47:24;95305.16;;;9.85;95.80
42001;BME280;27689;48.390;10.856;2022-11-04T14:50:17;95300.09;;;9.83;95.59
42001;BME280;27689;48.390;10.856;2022-11-04T14:53:02;95296.00;;;9.89;95.90
42001;BME280;27689;48.390;10.856;2022-11-04T14:55:49;95301.91;;;9.91;96.34
42001;BME280;27689;48.390;10.856;2022-11-04T14:58:54;95303.19;;;9.95;96.39
42001;BME280;27689;48.390;10.856;2022-11-04T15:01:39;95301.25;;;9.89;96.11
42001;BME280;27689;48.390;10.856;2022-11-04T15:04:24;95299.44;;;9.81;96.65
42001;BME280;27689;48.390;10.856;2022-11-04T15:07:19;95298.59;;;9.81;96.67
42001;BME280;27689;48.390;10.856;2022-11-04T15:10:22;95294.19;;;9.81;96.74
42001;BME280;27689;48.390;10.856;2022-11-04T15:13:07;95287.00;;;9.83;97.01
42001;BME280;27689;48.390;10.856;2022-11-04T15:15:52;95294.22;;;9.89;97.48
42001;BME280;27689;48.390;10.856;2022-11-04T15:18:37;95297.66;;;9.90;97.56
42001;BME280;27689;48.390;10.856;2022-11-04T15:21:22;95300.25;;;9.90;97.59
42001;BME280;27689;48.390;10.856;2022-11-04T15:24:13;95296.00;;;9.89;97.85
42001;BME280;27689;48.390;10.856;2022-11-04T15:27:01;95298.47;;;9.90;98.36
42001;BME280;27689;48.390;10.856;2022-11-04T15:29:59;95302.22;;;9.88;98.61
42001;BME280;27689;48.390;10.856;2022-11-04T15:32:58;95304.03;;;9.87;98.70
42001;BME280;27689;48.390;10.856;2022-11-04T15:35:42;95307.78;;;9.85;98.40
42001;BME280;27689;48.390;10.856;2022-11-04T15:38:26;95310.53;;;9.83;98.55
42001;BME280;27689;48.390;10.856;2022-11-04T15:41:11;95314.97;;;9.83;98.76
42001;BME280;27689;48.390;10.856;2022-11-04T15:47:03;95319.88;;;9.78;99.21
42001;BME280;27689;48.390;10.856;2022-11-04T15:50:14;95325.44;;;9.75;99.91
42001;BME280;27689;48.390;10.856;2022-11-04T15:52:59;95323.78;;;9.74;99.92
42001;BME280;27689;48.390;10.856;2022-11-04T15:55:43;95326.72;;;9.71;99.51
42001;BME280;27689;48.390;10.856;2022-11-04T15:58:29;95334.72;;;9.69;100.00
42001;BME280;27689;48.390;10.856;2022-11-04T16:01:15;95325.38;;;9.67;100.00
42001;BME280;27689;48.390;10.856;2022-11-04T16:03:59;95329.97;;;9.65;100.00
42001;BME280;27689;48.390;10.856;2022-11-04T16:06:43;95320.47;;;9.55;100.00
42001;BME280;27689;48.390;10.856;2022-11-04T16:09:27;95330.28;;;9.53;100.00
42001;BME280;27689;48.390;10.856;2022-11-04T16:12:23;95332.56;;;9.48;100.00
42001;BME280;27689;48.390;10.856;2022-11-04T16:18:23;95336.47;;;9.44;100.00
42001;BME280;27689;48.390;10.856;2022-11-04T16:21:28;95332.00;;;9.37;100.00
42001;BME280;27689;48.390;10.856;2022-11-04T16:24:20;95335.13;;;9.32;100.00
42001;BME280;27689;48.390;10.856;2022-11-04T16:27:08;95338.19;;;9.28;100.00
42001;BME280;27689;48.390;10.856;2022-11-04T16:30:15;95350.72;;;9.16;100.00
42001;BME280;27689;48.390;10.856;2022-11-04T16:33:07;95347.97;;;9.17;100.00
42001;BME280;27689;48.390;10.856;2022-11-04T16:35:52;95350.38;;;9.11;100.00
42001;BME280;27689;48.390;10.856;2022-11-04T16:38:36;95353.78;;;9.03;100.00
42001;BME280;27689;48.390;10.856;2022-11-04T16:41:20;95354.25;;;8.99;100.00
42001;BME280;27689;48.390;10.856;2022-11-04T16:44:05;95354.03;;;8.92;100.00
42001;BME280;27689;48.390;10.856;2022-11-04T16:46:53;95351.41;;;8.92;100.00
42001;BME280;27689;48.390;10.856;2022-11-04T16:49:39;95354.16;;;8.82;100.00
42001;BME280;27689;48.390;10.856;2022-11-04T16:52:23;95359.81;;;8.78;100.00
42001;BME280;27689;48.390;10.856;2022-11-04T16:55:11;95362.28;;;8.79;100.00
42001;BME280;27689;48.390;10.856;2022-11-04T16:57:59;95369.81;;;8.82;100.00
42001;BME280;27689;48.390;10.856;2022-11-04T17:00:43;95370.78;;;8.81;100.00
42001;BME280;27689;48.390;10.856;2022-11-04T17:03:27;95379.75;;;8.79;100.00
42001;BME280;27689;48.390;10.856;2022-11-04T17:06:11;95380.41;;;8.81;100.00
42001;BME280;27689;48.390;10.856;2022-11-04T17:08:56;95379.06;;;8.77;100.00
42001;BME280;27689;48.390;10.856;2022-11-04T17:11:40;95376.31;;;8.78;100.00
42001;BME280;27689;48.390;10.856;2022-11-04T17:14:24;95374.38;;;8.80;100.00
42001;BME280;27689;48.390;10.856;2022-11-04T17:17:08;95383.66;;;8.75;100.00
42001;BME280;27689;48.390;10.856;2022-11-04T17:19:52;95381.19;;;8.73;100.00
42001;BME280;27689;48.390;10.856;2022-11-04T17:22:36;95379.91;;;8.77;100.00